x

Edisto - 41 Nm Southeast Of Charleston, Sc (41004) Wave Buoy

11:50am - Sat 24th Feb 2018 All times are EST. -5 hours from GMT.

  • Sig Wave height 4.3ft
  • Swell Direction
  • Peak Period 10s
  • Average Period 7s
  • Wind
    4mph, 7mph gusts
  • Sea Temp 70°f
  • Air Temp 70°f
  • Sea Pressure 1024.6mb
  • Edisto - 41 Nm Southeast Of Charleston, Sc
  • Edisto - 41 Nm Southeast Of Charleston, Sc

More Historic Weather Station data

Upgrade to MSW Pro to gain access to the past 30 days of data for over 8000 Wavebouys and Weather Stations around the globe.

Join

Comparision Forecast

View Surf forecast
   
Sat 02/24 11:50am 4.5ft 10s 7s 4 7 mph 1024.6mb 70f 70f
11:40am 4.5ft  -  7s 4 7 mph 1024.8mb 70f 70f
11:30am  -   -   -  4 7 mph 1024.9mb 70f -
11:20am  -   -   -  4 7 mph 1025mb 70f 71f
11:10am  -   -   -  4 7 mph 1025.1mb 69f 70f
11:00am  -   -   -  4 7 mph 1025.2mb 69f 70f
10:50am 4.5ft  -  6s 4 7 mph 1025.2mb 69f -
10:40am 4.5ft  -  6s 4 7 mph 1025.2mb 69f 70f
10:30am  -   -   -  7 7 mph 1025.1mb 69f 70f
10:20am  -   -   -  7 7 mph 1025.1mb 69f 70f
10:10am  -   -   -  7 7 mph 1025.2mb 69f 70f
10:00am  -   -   -  7 7 mph 1025.2mb 69f 70f
9:50am 4.5ft 10s 6s 7 7 mph 1025.2mb 69f 70f
9:40am  -   -   -  7 7 mph 1025.1mb 69f 70f
9:30am  -   -   -  7 7 mph 1025mb 69f 70f
9:20am  -   -   -  4 7 mph 1025.1mb 69f 70f
9:10am  -   -   -  7 9 mph 1025mb 69f 70f
9:00am  -   -   -  7 9 mph 1024.9mb 69f 70f
8:50am 4.5ft 9s 6s 7 9 mph 1024.9mb 69f 70f
8:40am 4.5ft  -  6s 7 9 mph 1025mb 69f 70f
8:30am  -   -   -  7 9 mph 1025mb 69f 70f
8:20am  -   -   -  7 9 mph 1025mb 69f 70f
8:10am  -   -   -  7 9 mph 1025mb - 70f
8:00am  -   -   -  7 7 mph 1025mb 69f 70f
7:50am 5ft 10s 6s 7 9 mph 1025mb 69f 70f
7:40am  -   -   -  9 11 mph 1024.8mb 68f 70f
7:30am  -   -   -  9 11 mph 1024.7mb 68f 70f
7:20am  -   -   -  9 11 mph 1024.8mb 68f 69f
7:10am  -   -   -  9 9 mph 1024.7mb 68f 69f
7:00am  -   -   -  9 11 mph 1024.6mb 68f 69f
6:50am 5ft 10s 7s 7 9 mph 1024.6mb 68f 69f
6:40am 5ft  -  7s 4 7 mph 1024.7mb 68f 69f
6:30am  -   -   -  4 7 mph 1024.8mb 68f 69f
6:20am  -   -   -  4 7 mph 1024.7mb 68f 69f
6:10am  -   -   -  4 4 mph 1024.6mb 68f 69f
6:00am  -   -   -  2 4 mph 1024.6mb - 69f
5:50am 4.5ft 10s 7s 2 4 mph 1024.5mb 68f 69f
5:40am 4.5ft  -  7s 2 4 mph 1024.5mb 68f 69f
5:30am  -   -   -  2 2 mph 1024.5mb 68f 69f
5:20am  -   -   -  2 7 mph 1024.4mb 68f 69f
5:10am  -   -   -  4 7 mph 1024.3mb 68f 69f
5:00am  -   -   -  4 7 mph 1024.2mb 68f 69f
4:50am 4.5ft 9s 7s 4 7 mph 1024.2mb 68f 69f
4:40am 4.5ft  -  7s 4 7 mph 1024.2mb 68f 69f
4:30am  -   -   -  2 4 mph 1024.3mb 68f 69f
4:20am  -   -   -  4 7 mph 1024.2mb 68f 69f
4:10am  -   -   -  4 7 mph 1024.3mb 68f 69f
4:00am  -   -   -  4 7 mph 1024.3mb 68f 69f
3:50am 5ft 10s 7s 4 7 mph 1024.5mb 68f 69f
3:40am 5ft  -  7s 4 4 mph 1024.6mb 68f 69f
3:30am  -   -   -  4 4 mph 1024.8mb 68f 69f
3:20am  -   -   -  4 7 mph 1024.8mb 68f 69f
3:10am  -   -   -  4 7 mph 1025mb 68f 69f
3:00am  -   -   -  4 7 mph 1025.1mb 68f 69f
2:50am 5ft 10s 7s 4 7 mph 1025.1mb 68f 70f
2:40am 5ft  -  7s 4 4 mph 1025.3mb 68f 69f
2:30am  -   -   -  4 7 mph 1025.3mb 68f 69f
2:20am  -   -   -  7 7 mph 1025.3mb 68f 69f
2:10am  -   -   -  7 9 mph 1025.4mb 68f 69f
2:00am  -   -   -  9 11 mph 1025.4mb 68f -
1:50am 5ft 10s 7s 9 11 mph 1025.6mb 69f 69f
1:40am  -   -   -  9 11 mph 1025.7mb 68f 69f
1:30am  -   -   -  9 11 mph 1025.8mb 68f 69f
1:20am  -   -   -  11 13 mph 1025.9mb 68f 69f
1:10am  -   -   -  9 11 mph 1025.9mb 68f 69f
1:00am  -   -   -  9 11 mph 1026mb - 70f
12:50am 5ft  -  7s 9 13 mph 1026.1mb - 70f
12:40am 5ft 9s 7s  -  mph - 68f -
12:30am  -   -   -  9 11 mph 1026.2mb 68f 69f
12:20am  -   -   -  9 11 mph 1026.1mb 68f 69f
12:10am  -   -   -  7 9 mph 1026.2mb 68f 69f
12:00am  -   -   -  9 11 mph 1026.3mb 68f 69f
Fri 02/23 11:50pm 4.5ft 10s 7s 7 9 mph 1026.3mb 68f 69f
11:40pm 4.5ft  -  7s 7 9 mph 1026.3mb 68f 69f
11:30pm  -   -   -  4 7 mph 1026.4mb 69f 69f
11:20pm  -   -   -  4 7 mph 1026.5mb 68f 69f
11:10pm  -   -   -  7 9 mph 1026.5mb 69f 69f
11:00pm  -   -   -  7 9 mph 1026.5mb 69f 69f
10:50pm 4.5ft 9s 7s 9 11 mph 1026.5mb 69f 69f
10:40pm 4.5ft  -  7s 7 9 mph 1026.6mb 69f 69f
10:30pm  -   -   -  9 11 mph 1026.7mb 69f 69f
10:20pm  -   -   -  9 11 mph 1026.8mb - 69f
10:10pm  -   -   -  9 11 mph 1026.9mb 69f -
10:00pm  -   -   -  7 9 mph 1026.9mb 69f 69f
9:50pm 4.5ft 8s 6s 7 9 mph 1027mb 69f 68f
9:40pm 4.5ft  -  6s 4 7 mph 1027.2mb 69f 68f
9:30pm  -   -   -  7 9 mph 1027.2mb 68f 68f
9:20pm  -   -   -  7 9 mph 1027.2mb 69f 68f
9:10pm  -   -   -  7 9 mph 1027.2mb 69f 68f
9:00pm  -   -   -  7 9 mph 1027.4mb 69f 68f
8:50pm 4.5ft 10s 6s 9 11 mph 1027.5mb 68f 68f
8:40pm 4.5ft  -  6s 9 11 mph 1027.6mb 68f 67f
8:30pm  -   -   -  9 13 mph 1027.7mb 68f 68f
8:20pm  -   -   -  9 11 mph 1027.7mb 68f 68f
8:10pm  -   -   -  9 11 mph 1027.7mb 68f 68f
8:00pm  -   -   -  9 11 mph 1027.8mb - 68f
7:50pm 5ft 9s 7s 9 11 mph 1027.8mb 68f 68f
7:40pm  -   -   -  7 9 mph 1027.7mb 68f 68f
7:30pm  -   -   -  7 7 mph 1027.8mb 69f 68f
7:20pm  -   -   -  7 9 mph 1027.8mb 69f 68f
7:10pm  -   -   -  4 7 mph 1027.8mb 69f 68f
7:00pm  -   -   -  4 7 mph 1027.7mb 69f 68f
6:50pm 5ft 9s 7s 4 7 mph 1027.7mb 69f 68f
6:40pm  -   -   -  4 7 mph 1027.6mb 69f 68f
6:30pm  -   -   -  4 7 mph 1027.8mb 69f 68f
6:20pm  -   -   -  4 7 mph 1027.7mb 69f 68f
6:10pm  -   -   -  4 4 mph 1027.8mb 68f 68f
6:00pm  -   -   -  4 7 mph 1027.9mb 68f 68f
5:50pm 4.5ft 9s 7s 4 7 mph 1027.8mb 68f 68f
5:40pm 4.5ft  -  7s 4 7 mph 1027.8mb 68f 68f
5:30pm  -   -   -  7 9 mph 1027.8mb - 68f
5:20pm  -   -   -  7 11 mph 1027.7mb 68f 68f
5:10pm  -   -   -  9 11 mph 1027.8mb 68f 68f
5:00pm  -   -   -  11 13 mph 1027.9mb 68f 68f
4:50pm 5ft 9s 7s 11 16 mph 1028mb 68f 69f
4:40pm 5ft  -  7s 13 16 mph 1028mb 68f 69f
4:30pm  -   -   -  13 18 mph 1028.1mb 68f 69f
4:20pm  -   -   -  9 20 mph 1028.1mb 68f 70f
4:10pm  -   -   -  7 11 mph 1028.1mb 68f 70f
4:00pm  -   -   -  9 11 mph 1028mb 68f 70f
3:50pm 4.5ft 9s 7s 11 13 mph 1028.1mb 67f 70f
3:40pm 4.5ft  -  7s 11 13 mph 1028.2mb 67f 71f
3:30pm  -   -   -  9 13 mph 1028.3mb 67f 71f
3:20pm  -   -   -  2 7 mph 1028.3mb 68f 72f
3:10pm  -   -   -  2 4 mph 1028.3mb 68f 73f
3:00pm  -   -   -  2 4 mph 1028.4mb - 73f
2:50pm 4.5ft 10s 7s 2 4 mph 1028.5mb 68f 73f
2:40pm  -   -   -  2 4 mph 1028.5mb 68f 72f
2:30pm  -   -   -  4 7 mph 1028.5mb 68f 71f
2:20pm  -   -   -   -  4 mph 1028.6mb 68f 70f
2:10pm  -   -   -  2 4 mph 1028.7mb 68f 70f
2:00pm  -   -   -  2 4 mph 1028.8mb 68f 70f
1:50pm 4.5ft  -  7s 2 4 mph 1028.8mb 68f -
1:40pm  -   -   -  2 4 mph 1028.9mb - 70f
1:30pm  -   -   -  4 7 mph 1029.1mb 68f 70f
1:20pm  -   -   -  7 9 mph 1029.3mb 68f 70f
1:10pm  -   -   -  9 11 mph 1029.5mb 68f -
1:00pm  -   -   -  11 13 mph 1029.7mb 68f 71f
12:50pm 4.5ft 9s 7s 4 9 mph 1029.9mb 70f 73f
12:40pm  -   -   -   -  2 mph 1029.9mb 68f 73f
12:30pm  -   -   -   -  2 mph 1030mb 68f 73f
12:20pm  -   -   -   -  2 mph 1030.2mb 68f 73f
12:10pm  -   -   -   -  2 mph 1030.3mb 68f 73f
12:00pm  -   -   -   -  0 mph 1030.4mb 68f 73f
11:50am  -   -   -   -  2 mph 1030.4mb 68f 72f
11:40am  -   -   -   -  2 mph 1030.5mb 69f 72f
11:30am  -   -   -   -  2 mph 1030.6mb 68f 72f
11:20am  -   -   -   -  2 mph 1030.7mb 68f 72f
11:10am  -   -   -   -  2 mph 1030.7mb 69f 72f
11:00am  -   -   -   -  2 mph 1030.8mb 69f -
10:50am 4.5ft 9s 6s  -  2 mph 1030.9mb 68f 71f
10:40am 4.5ft  -  6s  -  2 mph 1030.9mb 68f 71f
10:30am  -   -   -   -  2 mph 1030.9mb 68f 71f
10:20am  -   -   -   -  2 mph 1031mb 68f 71f
10:10am  -   -   -   -  2 mph 1031mb 68f 70f
10:00am  -   -   -   -  2 mph 1031mb 68f 70f
9:50am 5ft 9s 7s  -  2 mph 1031mb 68f 70f
9:40am  -   -   -  2 4 mph 1031mb 68f 70f
9:30am  -   -   -  2 4 mph 1031.2mb 68f 70f
9:20am  -   -   -  4 4 mph 1031.3mb 68f 70f
9:10am  -   -   -  4 7 mph 1031.2mb 68f 70f
9:00am  -   -   -  4 7 mph 1031.3mb - 70f
8:50am 5ft 9s 6s 2 4 mph 1031.2mb 68f 70f
8:40am  -   -   -  2 4 mph 1031.1mb 68f 70f
8:30am  -   -   -  4 4 mph 1031mb 68f 70f
8:20am  -   -   -  2 4 mph 1031mb 68f 70f
8:10am  -   -   -  2 4 mph 1030.8mb 68f 70f
8:00am  -   -   -  2 4 mph 1030.7mb 68f -
7:50am 5ft 9s 6s 2 4 mph 1030.8mb 68f 70f
7:40am 5ft  -  6s 2 4 mph 1030.6mb 68f 69f
7:30am  -   -   -  2 4 mph 1030.5mb 68f 69f
7:20am  -   -   -  2 4 mph 1030.4mb 68f 69f
7:10am  -   -   -  2 4 mph 1030.3mb 68f 69f
7:00am  -   -   -  2 4 mph 1030.2mb 68f 69f
6:50am 5ft 9s 7s 4 4 mph 1030.2mb 68f 69f
6:40am 5ft  -  7s 4 7 mph 1030.1mb 68f 69f
6:30am  -   -   -  4 7 mph 1030mb 68f 69f
6:20am  -   -   -  4 7 mph 1029.9mb 68f 69f
6:10am  -   -   -  4 7 mph 1029.8mb - 69f
6:00am  -   -   -  4 4 mph 1029.7mb 68f 69f
5:50am 5ft 9s 7s 4 4 mph 1029.6mb 68f 69f
5:40am 5ft  -  7s 4 4 mph 1029.6mb 68f 69f
5:30am  -   -   -  4 4 mph 1029.6mb 68f 69f
5:20am  -   -   -  4 7 mph 1029.5mb 68f 69f
5:10am  -   -   -  4 7 mph 1029.5mb 68f 69f
5:00am  -   -   -  4 7 mph 1029.5mb 68f 69f
4:50am 5ft 9s  -  4 7 mph 1029.4mb - 69f
4:40am  -   -   -  4 7 mph 1029.5mb 68f 69f
4:30am  -   -   -  4 4 mph 1029.5mb 68f 69f
4:20am  -   -   -  4 4 mph 1029.5mb 68f 69f
4:10am  -   -   -  4 7 mph 1029.5mb 68f 69f
4:00am  -   -   -  4 4 mph 1029.5mb 68f 69f
3:50am 5ft 9s 7s 4 4 mph 1029.5mb 68f 69f
3:40am 5ft  -  7s 2 4 mph 1029.5mb 68f 69f
3:30am  -   -   -  2 4 mph 1029.5mb 68f 69f
3:20am  -   -   -  2 4 mph 1029.6mb 68f 69f
3:10am  -   -   -  2 4 mph 1029.6mb 68f 69f
3:00am  -   -   -  2 4 mph 1029.6mb 68f 69f
2:50am 4.5ft 9s 7s 4 4 mph 1029.7mb 68f 69f
2:40am  -   -   -  2 4 mph 1029.7mb 68f 69f
2:30am  -   -   -  2 4 mph 1029.7mb 68f 69f
2:20am  -   -   -  2 4 mph 1029.7mb 68f 69f
2:10am  -   -   -  2 4 mph 1029.7mb 68f 69f
2:00am  -   -   -  2 4 mph 1029.7mb 68f 70f
1:50am 4.5ft 9s 7s 2 4 mph 1029.8mb 68f 70f
1:40am 4.5ft  -  7s 2 2 mph 1029.9mb 69f 70f
1:30am  -   -   -  2 4 mph 1030mb 69f 70f
1:20am  -   -   -  2 4 mph 1030mb 68f 70f
1:10am  -   -   -  2 4 mph 1030mb 68f 70f
1:00am  -   -   -  2 4 mph 1030mb 69f 69f
12:50am 4.5ft 9s 7s 2 4 mph 1030.1mb 69f 69f
12:40am  -   -   -  2 4 mph 1030.1mb 69f 69f
12:30am  -   -   -  2 4 mph 1030.2mb 69f 69f
12:20am  -   -   -  2 4 mph 1030.2mb 69f 69f
12:10am  -   -   -  2 4 mph 1030.2mb 69f 69f
12:00am  -   -   -  4 4 mph 1030.2mb 69f 69f
Thu 02/22 11:50pm 4.5ft 9s 7s 2 4 mph 1030.3mb 69f 69f
11:40pm 4.5ft  -  7s 4 4 mph 1030.4mb 69f 69f
11:30pm  -   -   -  4 4 mph 1030.4mb 69f -
11:20pm  -   -   -  4 4 mph 1030.5mb 69f 69f
11:10pm  -   -   -  4 7 mph 1030.5mb 68f 69f
11:00pm  -   -   -  4 4 mph 1030.5mb - 69f
10:50pm 4.5ft 9s 7s 4 7 mph 1030.5mb 68f 69f
10:40pm 4.5ft  -  7s 4 7 mph 1030.5mb 68f 69f
10:30pm  -   -   -  4 4 mph 1030.6mb 68f 69f
10:20pm  -   -   -  4 4 mph 1030.6mb 69f 69f
10:10pm  -   -   -  2 4 mph 1030.7mb 69f -
10:00pm  -   -   -  2 4 mph 1030.8mb 68f 70f
9:50pm 4.5ft 9s 7s 2 4 mph 1030.8mb 69f 70f
9:40pm 4.5ft  -  7s 2 4 mph 1030.8mb 69f 70f
9:30pm  -   -   -  4 4 mph 1030.9mb 69f 70f
9:20pm  -   -   -  2 4 mph 1030.8mb 69f 70f
9:10pm  -   -   -  2 4 mph 1030.8mb 69f 70f
9:00pm  -   -   -  4 4 mph 1030.9mb 69f 70f
8:50pm 4.5ft 8s 7s 4 4 mph 1030.8mb 69f 70f
8:40pm 4.5ft  -  7s 4 4 mph 1030.8mb 69f 70f
8:30pm  -   -   -  4 4 mph 1030.7mb 68f 70f
8:20pm  -   -   -  4 4 mph 1030.6mb - 70f
8:10pm  -   -   -  4 4 mph 1030.6mb 68f 70f
8:00pm  -   -   -  4 4 mph 1030.6mb 69f 70f
7:50pm 4.5ft 9s 7s 4 7 mph 1030.5mb 69f 70f
7:40pm  -   -   -  4 7 mph 1030.4mb 69f 70f
7:30pm  -   -   -  4 4 mph 1030.3mb 68f 70f
7:20pm  -   -   -  2 4 mph 1030.3mb 69f 70f
7:10pm  -   -   -  2 4 mph 1030.2mb 69f 70f
7:00pm  -   -   -  2 4 mph 1030.2mb 69f 70f
6:50pm 5ft 9s 7s 4 4 mph 1030.2mb 70f 70f
6:40pm  -   -   -  4 7 mph 1030.2mb 70f 70f
6:30pm  -   -   -  4 7 mph 1030.2mb - 70f
6:20pm  -   -   -  4 7 mph 1030.2mb 69f 70f
6:10pm  -   -   -  4 4 mph 1030.2mb 69f -
6:00pm  -   -   -  4 4 mph 1030.2mb - 70f
5:50pm 4.5ft 8s 7s 4 4 mph 1030.2mb 69f 71f
5:40pm 4.5ft  -  7s 4 4 mph 1030.2mb 69f 71f
5:30pm  -   -   -  4 4 mph 1030.2mb 69f 71f
5:20pm  -   -   -  4 7 mph 1030.2mb 68f 71f
5:10pm  -   -   -  4 4 mph 1030.1mb - 71f
5:00pm  -   -   -  4 7 mph 1030mb 68f 71f
4:50pm 4.5ft 8s 7s 4 4 mph 1030mb 68f 71f
4:40pm  -   -   -  4 4 mph 1030mb 68f 71f
4:30pm  -   -   -  4 7 mph 1030mb 68f 71f
4:20pm  -   -   -  4 7 mph 1030.1mb 68f 71f
4:10pm  -   -   -  4 7 mph 1030.2mb 68f 71f
4:00pm  -   -   -  4 7 mph 1030.2mb 68f 71f
3:50pm 4.5ft 8s 7s 4 7 mph 1030.2mb 68f 71f
3:40pm 4.5ft  -  7s 4 7 mph 1030.2mb 68f 71f
3:30pm  -   -   -  4 7 mph 1030.2mb 68f 72f
3:20pm  -   -   -  4 7 mph 1030.3mb 69f 72f
3:10pm  -   -   -  4 4 mph 1030.3mb 68f 72f
3:00pm  -   -   -  2 4 mph 1030.3mb 68f 72f
2:50pm 4.5ft 8s 7s 2 4 mph 1030.4mb 68f 72f
2:40pm 4.5ft  -  7s 2 4 mph 1030.5mb 68f 72f
2:30pm  -   -   -  2 4 mph 1030.5mb 68f 71f
2:20pm  -   -   -  4 7 mph 1030.6mb - 71f
2:10pm  -   -   -  4 7 mph 1030.7mb 68f 71f
2:00pm  -   -   -  4 7 mph 1030.8mb - 71f
1:50pm 4ft 8s 7s 4 7 mph 1031mb 68f 72f
1:40pm 4ft  -  7s 4 7 mph 1031mb 69f 72f
1:30pm  -   -   -  4 7 mph 1031.1mb 68f -
1:20pm  -   -   -  4 7 mph 1031.2mb 68f 72f
1:10pm  -   -   -  4 7 mph 1031.3mb 69f 72f
1:00pm  -   -   -  4 7 mph 1031.4mb 68f 72f
12:50pm 4ft 7s 6s 4 7 mph 1031.6mb 69f 72f
12:40pm 4ft  -  6s 4 9 mph 1031.8mb 69f 72f
12:30pm  -   -   -  2 4 mph 1031.9mb 69f 72f
12:20pm  -   -   -  2 4 mph 1032.1mb 69f 72f
12:10pm  -   -   -  2 4 mph 1032.2mb 69f 72f
12:00pm  -   -   -   -  2 mph 1032.3mb 69f 72f
11:50am 4.5ft 8s 7s  -  2 mph 1032.3mb 69f 71f
11:40am 4.5ft  -  7s  -  2 mph 1032.4mb - 72f
11:30am  -   -   -   -  2 mph 1032.4mb 69f 72f
11:20am  -   -   -   -  2 mph 1032.5mb 69f 71f
11:10am  -   -   -  2 4 mph 1032.5mb 69f 71f
11:00am  -   -   -  4 4 mph 1033mb - 71f
10:50am 4.5ft 8s 6s 2 2 mph 1032.6mb 69f 71f
10:40am 4.5ft  -  6s 2 4 mph 1032.6mb 69f 71f
10:30am  -   -   -  2 2 mph 1032.7mb - 71f
10:20am  -   -   -   -  2 mph 1032.7mb 68f 71f
10:10am  -   -   -  2 2 mph 1032.7mb 68f 71f
10:00am  -   -   -  2 4 mph 1032.6mb 68f 71f
9:50am 4.5ft  -  6s  -  2 mph 1032.6mb 68f -
9:40am 4.5ft  -  6s  -  0 mph 1032.6mb 68f 72f
9:30am  -   -   -   -  2 mph 1032.6mb 68f 71f
9:20am  -   -   -   -  2 mph 1032.5mb 68f 72f
9:10am  -   -   -   -  2 mph 1032.4mb 68f 72f
9:00am  -   -   -  2 4 mph 1032.3mb - 71f
8:50am 4.5ft 7s 6s 2 4 mph 1032.2mb 68f 71f
8:40am  -   -   -  4 4 mph 1032.2mb 68f 71f
8:30am  -   -   -  4 7 mph 1032.1mb 68f 70f
8:20am  -   -   -  4 4 mph 1032.1mb 68f 70f
8:10am  -   -   -  4 4 mph 1032mb 68f 70f
8:00am  -   -   -  4 7 mph 1032.5mb - 70f
7:50am 4.5ft 8s 6s 4 7 mph 1031.9mb 68f 70f
7:40am  -   -   -  4 7 mph 1031.8mb 68f 70f
7:30am  -   -   -  4 7 mph 1031.7mb 68f 70f
7:20am  -   -   -  4 7 mph 1031.6mb 68f 70f
7:10am  -   -   -  4 7 mph 1031.5mb 68f 70f
7:00am  -   -   -  7 9 mph 1031.5mb 68f 70f
6:50am 4.5ft 8s 6s 7 9 mph 1031.4mb 68f 71f
6:40am 4.5ft  -  6s 7 9 mph 1031.4mb 68f 71f
6:30am  -   -   -  9 9 mph 1031.3mb 68f 70f
6:20am  -   -   -  7 9 mph 1031.2mb - 70f
6:10am  -   -   -  4 7 mph 1031.1mb - 71f
6:00am  -   -   -  7 9 mph 1031mb 68f 71f
5:50am 4.5ft 7s 5s 9 9 mph 1030.8mb 69f 71f
5:40am 4.5ft  -  5s 9 11 mph 1030.7mb 69f 71f
5:30am  -   -   -  9 11 mph 1030.7mb 69f 71f
5:20am  -   -   -  7 9 mph 1030.5mb 69f 71f
5:10am  -   -   -  7 9 mph 1030.4mb 69f 71f
5:00am  -   -   -  9 11 mph 1030.3mb 69f 71f
4:50am 4.5ft 8s 6s 9 11 mph 1030.2mb 69f 71f
4:40am 4.5ft  -  6s 9 13 mph 1030.1mb 69f 71f
4:30am  -   -   -  9 11 mph 1030.1mb 69f 71f
4:20am  -   -   -  11 16 mph 1030.1mb 69f 71f
4:10am  -   -   -  13 16 mph 1030mb 69f 71f
4:00am  -   -   -  11 16 mph 1030mb 69f 71f
3:50am 4ft  -  5s 11 13 mph 1029.9mb 69f -
3:40am 4ft  -  5s 11 16 mph 1029.9mb 69f 71f
3:30am  -   -   -  11 13 mph 1030mb 69f 71f
3:20am  -   -   -  11 16 mph 1030.1mb 69f 71f
3:10am  -   -   -  11 16 mph 1030.1mb 69f 71f
3:00am  -   -   -  11 13 mph 1030.2mb 69f 71f
2:50am 4.5ft 8s 6s 11 13 mph 1030.2mb 69f 71f
2:40am  -   -   -  11 13 mph 1030.2mb 69f 71f
2:30am  -   -   -  11 13 mph 1030.4mb 70f 71f
2:20am  -   -   -  11 16 mph 1030.5mb 70f 71f
2:10am  -   -   -  11 13 mph 1030.5mb 70f 71f
2:00am  -   -   -  11 11 mph 1030.6mb - 71f
1:50am 4ft 8s 6s 11 13 mph 1030.6mb 69f 71f
1:40am  -   -   -  11 13 mph 1030.6mb 70f 71f
1:30am  -   -   -  11 13 mph 1030.7mb 69f 71f
1:20am  -   -   -  11 13 mph 1030.8mb 70f 71f
1:10am  -   -   -  11 13 mph 1030.8mb 70f 71f
1:00am  -   -   -  11 11 mph 1030.8mb 69f 72f
12:50am 3.5ft 8s 6s 11 13 mph 1030.8mb 70f 72f
12:40am  -   -   -  11 13 mph 1030.8mb 69f 72f
12:30am  -   -   -  9 11 mph 1030.9mb 70f 72f
12:20am  -   -   -  9 13 mph 1031mb 70f 71f
12:10am  -   -   -  7 9 mph 1031mb 70f -
12:00am  -   -   -  4 7 mph 1031mb - 71f
Wed 02/21 11:50pm 3.5ft 8s 6s 4 7 mph 1030.8mb 70f 71f
11:40pm 3.5ft  -  6s 7 9 mph 1030.8mb 70f 71f
11:30pm  -   -   -  7 7 mph 1030.8mb - 71f
11:20pm  -   -   -  7 7 mph 1030.7mb 70f 72f
11:10pm  -   -   -  7 11 mph 1030.9mb 70f 71f
11:00pm  -   -   -  7 9 mph 1030.9mb 70f 72f
10:50pm 3.5ft 8s 6s 7 9 mph 1031mb 70f 72f
10:40pm 3.5ft  -  6s 7 9 mph 1030.9mb 70f 72f
10:30pm  -   -   -  7 9 mph 1030.9mb - 72f
10:20pm  -   -   -  7 9 mph 1030.9mb 71f 72f
10:10pm  -   -   -  9 11 mph 1030.9mb - 72f
10:00pm  -   -   -  9 11 mph 1030.8mb 70f 71f
9:50pm 3.5ft 7s 6s 9 11 mph 1030.8mb 70f 71f
9:40pm 3.5ft  -  6s 7 9 mph 1031mb 70f 71f
9:30pm  -   -   -  7 7 mph 1030.9mb 70f 71f
9:20pm  -   -   -  4 7 mph 1031mb 70f 71f
9:10pm  -   -   -  4 4 mph 1031.1mb 70f 71f
9:00pm  -   -   -  4 4 mph 1031.1mb - 71f
8:50pm 4ft 8s 6s 4 4 mph 1031.1mb 69f 71f
8:40pm 4ft  -  6s 4 7 mph 1031.1mb 69f 71f
8:30pm  -   -   -  4 4 mph 1031mb 69f 71f
8:20pm  -   -   -  4 4 mph 1031mb 69f 71f
8:10pm  -   -   -  4 4 mph 1031mb 68f 71f
8:00pm  -   -   -  4 7 mph 1031mb 68f -
7:50pm 4ft  -  6s 4 7 mph 1031mb 69f -
7:40pm 4ft  -  6s 4 7 mph 1030.9mb - 71f
7:30pm  -   -   -  4 7 mph 1031mb 68f 71f
7:20pm  -   -   -  4 7 mph 1031mb - 71f
7:10pm  -   -   -  4 7 mph 1031mb - 71f
7:00pm  -   -   -  4 7 mph 1030.9mb - 71f
6:50pm 4.5ft 8s 6s 4 7 mph 1030.8mb 68f 71f
6:40pm 4.5ft  -  6s 4 7 mph 1030.8mb 68f 71f
6:30pm  -   -   -  4 4 mph 1030.8mb 68f 71f
6:20pm  -   -   -  4 4 mph 1030.7mb 69f 71f
6:10pm  -   -   -  4 7 mph 1030.7mb 69f -
6:00pm  -   -   -  4 7 mph 1030.6mb 68f 71f
5:50pm 4.5ft 8s 6s 4 7 mph 1030.5mb 69f 72f
5:40pm 4.5ft  -  6s 4 7 mph 1030.5mb 70f 72f
5:30pm  -   -   -  4 7 mph 1030.5mb - 72f
5:20pm  -   -   -  4 4 mph 1030.5mb 69f 72f
5:10pm  -   -   -  4 4 mph 1030.5mb 69f 72f
5:00pm  -   -   -  2 4 mph 1030.5mb - 72f
4:50pm 4.5ft 8s 6s 2 4 mph 1030.3mb 68f 72f
4:40pm 4.5ft  -  6s 2 4 mph 1030.3mb 68f 72f
4:30pm  -   -   -  2 4 mph 1030.4mb - 72f
4:20pm  -   -   -  2 4 mph 1030.3mb 68f 73f
4:10pm  -   -   -  2 4 mph 1030.3mb 69f 73f
4:00pm  -   -   -  2 4 mph 1030.3mb 68f 73f
3:50pm 4.5ft 8s 6s 2 4 mph 1030.3mb 69f 73f
3:40pm 4.5ft  -  6s 2 4 mph 1030.3mb 69f 73f
3:30pm  -   -   -  2 4 mph 1030.3mb 69f 73f
3:20pm  -   -   -  4 4 mph 1030.4mb 69f 73f
3:10pm  -   -   -  4 4 mph 1030.4mb 69f 73f
3:00pm  -   -   -  4 4 mph 1030.4mb 68f 73f
2:50pm 4.5ft 8s 6s 2 4 mph 1030.4mb 68f 73f
2:40pm 4.5ft  -  6s 4 4 mph 1030.5mb 69f 73f
2:30pm  -   -   -  4 4 mph 1030.5mb 69f 73f
2:20pm  -   -   -  4 4 mph 1030.5mb 69f 73f
2:10pm  -   -   -  2 4 mph 1030.5mb 69f 73f
2:00pm  -   -   -  4 4 mph 1030.6mb 69f 73f
1:50pm 4.5ft 8s 6s 4 7 mph 1030.6mb 69f 73f
1:40pm 4.5ft  -  6s 4 7 mph 1030.6mb 68f 73f
1:30pm  -   -   -  4 7 mph 1030.7mb 69f 73f
1:20pm  -   -   -  4 4 mph 1030.8mb 69f 73f
1:10pm  -   -   -  4 7 mph 1031mb 69f 73f
1:00pm  -   -   -  4 4 mph 1031mb 69f 73f
12:50pm 4.5ft  -  6s 2 4 mph 1031.1mb 69f -
12:40pm  -   -   -  4 4 mph 1031.3mb 69f 72f
12:30pm  -   -   -  4 4 mph 1031.5mb 68f 72f
12:20pm  -   -   -  2 4 mph 1031.6mb - 72f
12:10pm  -   -   -  2 4 mph 1031.8mb 69f 72f
12:00pm  -   -   -  2 4 mph 1031.9mb 69f 72f
11:50am 4ft 7s 6s 2 4 mph 1032mb 68f 72f
11:40am 4ft  -  6s 2 4 mph 1032.1mb 70f 72f
11:30am  -   -   -  2 4 mph 1032.2mb 69f 72f
11:20am  -   -   -  2 4 mph 1032.2mb 68f 72f
11:10am  -   -   -  2 4 mph 1032.3mb 68f 72f
11:00am  -   -   -  2 4 mph 1032.4mb 68f 72f
10:50am  -   -   -  2 4 mph 1032.4mb 68f 71f
10:40am  -   -   -  2 4 mph 1032.4mb 68f 71f
10:30am  -   -   -  2 4 mph 1032.4mb 69f 71f
10:20am  -   -   -  2 4 mph 1032.3mb 68f 71f
10:10am  -   -   -  4 4 mph 1032.3mb 68f 71f
10:00am  -   -   -  4 4 mph 1032.1mb 68f 71f
9:50am 4.5ft 8s 6s 2 4 mph 1032.1mb 68f 71f
9:40am 4.5ft  -  6s 2 4 mph 1032.1mb 68f 71f
9:30am  -   -   -  2 4 mph 1032mb 68f 71f
9:20am  -   -   -  2 4 mph 1032.1mb 68f 71f
9:10am  -   -   -  2 4 mph 1032mb 68f 71f
9:00am  -   -   -  4 7 mph 1032mb 68f -
8:50am 4.5ft 7s 6s 4 7 mph 1031.8mb 68f 71f
8:40am 4.5ft  -  6s 4 7 mph 1031.8mb 68f 71f
8:30am  -   -   -  4 7 mph 1031.7mb 68f -
8:20am  -   -   -  4 7 mph 1031.7mb - 71f
8:10am  -   -   -  4 7 mph 1031.6mb 68f 70f
8:00am  -   -   -  4 7 mph 1031.6mb - 70f
7:50am 4.5ft 8s 5s 4 7 mph 1031.6mb 68f 70f
7:40am 4.5ft  -  5s 4 7 mph 1031.4mb 68f -
7:30am  -   -   -  4 7 mph 1031.4mb 68f 70f
7:20am  -   -   -  4 7 mph 1031.3mb 68f 70f
7:10am  -   -   -  4 7 mph 1031.3mb 68f 70f
7:00am  -   -   -  4 7 mph 1031.2mb 68f 70f
6:50am 4.5ft 7s 6s 4 7 mph 1031.1mb 68f 70f
6:40am 4.5ft  -  6s 4 7 mph 1031.1mb 68f 70f
6:30am  -   -   -  4 7 mph 1030.9mb 68f 70f
6:20am  -   -   -  4 7 mph 1030.9mb 68f 70f
6:10am  -   -   -  4 7 mph 1030.7mb 68f 70f
6:00am  -   -   -  4 7 mph 1030.6mb - 70f
5:50am 4.5ft 7s 6s 4 7 mph 1030.5mb 68f 70f
5:40am  -   -   -  7 7 mph 1030.4mb 68f 70f
5:30am  -   -   -  7 7 mph 1030.4mb 68f 70f
5:20am  -   -   -  4 7 mph 1030.3mb 68f 70f
5:10am  -   -   -  4 7 mph 1030.2mb - 70f
5:00am  -   -   -  7 9 mph 1030.2mb 68f -
4:50am 4.5ft 7s 5s 7 9 mph 1030.1mb - 70f
4:40am 4.5ft  -  5s 7 9 mph 1030.1mb 68f 70f
4:30am  -   -   -  7 9 mph 1030mb 68f 70f
4:20am  -   -   -  7 9 mph 1030mb 68f 70f
4:10am  -   -   -  7 9 mph 1030mb 68f 70f
4:00am  -   -   -  7 9 mph 1029.9mb 68f 70f
3:50am 4.5ft 7s 6s 7 9 mph 1029.8mb 68f 70f
3:40am 4.5ft  -  6s 7 7 mph 1029.8mb 68f 70f
3:30am  -   -   -  7 9 mph 1029.8mb 68f 70f
3:20am  -   -   -  7 9 mph 1029.9mb 68f 71f
3:10am  -   -   -  9 9 mph 1029.9mb 68f 71f
3:00am  -   -   -  9 11 mph 1030mb 68f 71f
2:50am 4.5ft 6s 6s 9 11 mph 1030mb 68f 71f
2:40am 4.5ft  -  6s 9 11 mph 1030.1mb 68f 71f
2:30am  -   -   -  9 11 mph 1030.1mb 68f 71f
2:20am  -   -   -  9 11 mph 1030.1mb 68f 71f
2:10am  -   -   -  9 11 mph 1030.2mb 68f 71f
2:00am  -   -   -  9 11 mph 1030.2mb 68f 71f
1:50am 4ft 7s 6s 9 9 mph 1030.3mb 68f 71f
1:40am 4ft  -  6s 7 9 mph 1030.5mb 68f 71f
1:30am  -   -   -  7 9 mph 1030.5mb 68f 71f
1:20am  -   -   -  7 9 mph 1030.6mb 68f 71f
1:10am  -   -   -  7 9 mph 1030.6mb 68f 71f
1:00am  -   -   -  7 9 mph 1030.6mb 68f 71f
12:50am 4.5ft 7s 6s 7 9 mph 1030.6mb 68f 71f
12:40am 4.5ft  -  6s 7 11 mph 1030.6mb 68f 71f
12:30am  -   -   -  7 9 mph 1030.7mb 69f 71f
12:20am  -   -   -  7 9 mph 1030.8mb 69f 71f
12:10am  -   -   -  7 9 mph 1030.7mb 69f 71f
12:00am  -   -   -  7 9 mph 1030.8mb 69f 71f
Tue 02/20 11:50pm 4.5ft 7s 6s 7 9 mph 1030.8mb - 71f
11:40pm 4.5ft  -  6s 7 9 mph 1030.7mb 69f 71f
11:30pm  -   -   -  7 9 mph 1030.7mb - 71f
11:20pm  -   -   -  7 9 mph 1030.8mb 69f 71f
11:10pm  -   -   -  7 9 mph 1030.8mb 69f 71f
11:00pm  -   -   -  7 9 mph 1030.7mb 69f 71f
10:50pm 4ft  -  5s 7 9 mph 1030.8mb 69f 71f
10:40pm 4ft 7s 5s  -  mph - - -
10:30pm  -   -   -  9 11 mph 1030.8mb 69f 71f
10:20pm  -   -   -  9 11 mph 1030.8mb 69f 71f
10:10pm  -   -   -  9 11 mph 1030.7mb 69f 71f
10:00pm  -   -   -  9 11 mph 1030.7mb 69f 71f
9:50pm 4ft 6s 5s 9 11 mph 1030.8mb 69f 71f
9:40pm 4ft  -  5s 9 11 mph 1030.7mb 69f 71f
9:30pm  -   -   -  9 11 mph 1030.6mb 69f 71f
9:20pm  -   -   -  9 11 mph 1030.6mb 69f 71f
9:10pm  -   -   -  7 11 mph 1030.5mb 69f 71f
9:00pm  -   -   -  7 9 mph 1030.5mb 69f -
8:50pm 3.5ft  -  5s 9 11 mph 1030.5mb 69f -
8:40pm 3.5ft  -  5s 9 11 mph 1030.4mb - 71f
8:30pm  -   -   -  7 11 mph 1030.4mb 69f 71f
8:20pm  -   -   -  7 9 mph 1030.5mb 69f 71f
8:10pm  -   -   -  7 9 mph 1030.4mb 68f 71f
8:00pm  -   -   -  7 9 mph 1030.2mb 69f 71f
7:50pm 4ft 6s 5s 7 9 mph 1030.2mb 69f 71f
7:40pm 4ft  -  5s 7 9 mph 1030.2mb 69f 70f
7:30pm  -   -   -  7 7 mph 1030.2mb 69f 70f
7:20pm  -   -   -  7 7 mph 1030.2mb 69f 71f
7:10pm  -   -   -  7 9 mph 1030.2mb 69f 71f
7:00pm  -   -   -  7 9 mph 1030.8mb - 71f
6:50pm 3.5ft 6s 5s 7 9 mph 1030.1mb - 71f
6:40pm 3.5ft  -  5s 7 9 mph 1030.1mb 69f 71f
6:30pm  -   -   -  7 9 mph 1030mb 69f 71f
6:20pm  -   -   -  7 9 mph 1030mb 69f 71f
6:10pm  -   -   -  7 7 mph 1030mb 69f 71f
6:00pm  -   -   -  7 9 mph 1029.9mb 69f 71f
5:50pm 4ft 7s 5s 7 9 mph 1029.8mb 69f 71f